createdAt,value
2024-02-22T07:24:39.580Z,899.00
2024-02-22T07:25:41.612Z,915.00
2024-02-22T07:26:40.759Z,926.00
2024-02-22T07:27:41.182Z,935.00
2024-02-22T07:28:40.838Z,940.00
2024-02-22T07:29:40.690Z,950.00
2024-02-22T07:30:40.746Z,949.00
2024-02-22T07:31:41.081Z,960.00
2024-02-22T07:32:41.009Z,972.00
2024-02-22T07:33:42.088Z,982.00
2024-02-22T07:34:40.786Z,986.00
2024-02-22T07:35:43.966Z,979.00
2024-02-22T07:36:40.812Z,961.00
2024-02-22T07:37:40.820Z,962.00
2024-02-22T07:38:40.791Z,960.00
2024-02-22T07:39:40.779Z,963.00
2024-02-22T07:40:40.822Z,964.00
2024-02-22T07:41:40.947Z,966.00
2024-02-22T07:42:40.800Z,964.00
2024-02-22T07:43:40.833Z,961.00
2024-02-22T07:44:40.787Z,956.00
2024-02-22T07:45:40.894Z,948.00
2024-02-22T07:46:40.817Z,941.00
2024-02-22T07:47:41.482Z,935.00
2024-02-22T07:48:40.885Z,933.00
2024-02-22T07:49:40.796Z,925.00
2024-02-22T07:50:40.958Z,925.00
2024-02-22T07:51:50.203Z,930.00
2024-02-22T07:52:41.115Z,993.00
2024-02-22T07:53:40.804Z,963.00
2024-02-22T07:54:40.832Z,964.00
2024-02-22T07:55:40.899Z,976.00
2024-02-22T07:56:40.904Z,982.00
2024-02-22T07:57:41.448Z,979.00
2024-02-22T07:58:40.823Z,975.00
2024-02-22T07:59:40.814Z,990.00
2024-02-22T08:00:40.999Z,983.00
2024-02-22T08:01:40.844Z,989.00
2024-02-22T08:02:40.987Z,985.00
2024-02-22T08:03:40.974Z,930.00
2024-02-22T08:04:41.082Z,943.00
2024-02-22T08:05:40.906Z,958.00
2024-02-22T08:06:40.877Z,966.00
2024-02-22T08:07:40.867Z,969.00
2024-02-22T08:08:41.974Z,977.00
2024-02-22T08:09:40.818Z,980.00
2024-02-22T08:10:40.858Z,980.00
2024-02-22T08:11:41.020Z,978.00
2024-02-22T08:12:40.855Z,979.00
2024-02-22T08:13:40.867Z,980.00
2024-02-22T08:14:41.377Z,976.00
2024-02-22T08:15:40.830Z,971.00
2024-02-22T08:16:40.851Z,965.00
2024-02-22T08:17:40.884Z,962.00
2024-02-22T08:18:40.846Z,963.00
2024-02-22T08:19:41.079Z,963.00
2024-02-22T08:20:41.034Z,960.00
2024-02-22T08:21:40.913Z,955.00
2024-02-22T08:22:40.974Z,953.00
2024-02-22T08:23:41.615Z,960.00
2024-02-22T08:24:40.998Z,977.00
2024-02-22T08:25:41.086Z,989.00
2024-02-22T08:26:41.465Z,982.00
2024-02-22T08:27:50.153Z,959.00
2024-02-22T08:28:41.569Z,948.00
2024-02-22T08:29:41.033Z,943.00
2024-02-22T08:30:41.053Z,943.00
2024-02-22T08:31:41.698Z,940.00
2024-02-22T08:32:41.106Z,940.00
2024-02-22T08:33:41.537Z,938.00
2024-02-22T08:34:41.085Z,944.00
2024-02-22T08:35:41.045Z,949.00
2024-02-22T08:36:41.054Z,963.00
2024-02-22T08:37:41.077Z,975.00
2024-02-22T08:38:41.478Z,943.00
2024-02-22T08:39:41.464Z,927.00
2024-02-22T08:40:41.077Z,918.00
2024-02-22T08:41:41.095Z,909.00
2024-02-22T08:42:41.062Z,905.00
2024-02-22T08:43:42.093Z,901.00
2024-02-22T08:44:41.493Z,910.00
2024-02-22T08:45:41.182Z,930.00
2024-02-22T08:46:41.120Z,938.00
2024-02-22T08:47:44.451Z,950.00
2024-02-22T08:48:41.883Z,959.00
2024-02-22T08:49:41.164Z,956.00
2024-02-22T08:50:41.075Z,954.00
2024-02-22T08:51:41.084Z,953.00
2024-02-22T08:52:41.124Z,961.00
2024-02-22T08:53:41.500Z,966.00
2024-02-22T08:54:41.103Z,965.00
2024-02-22T08:55:41.170Z,955.00
2024-02-22T08:56:41.099Z,938.00
2024-02-22T08:57:51.220Z,898.00
2024-02-22T08:58:41.127Z,834.00
2024-02-22T08:59:41.518Z,829.00
2024-02-22T09:00:41.513Z,823.00
2024-02-22T09:01:41.200Z,812.00
2024-02-22T09:02:41.123Z,798.00
2024-02-22T09:03:41.517Z,781.00
2024-02-22T09:04:41.164Z,773.00
2024-02-22T09:05:41.143Z,763.00
2024-02-22T09:06:41.617Z,754.00
2024-02-22T09:07:41.343Z,747.00
2024-02-22T09:08:41.221Z,739.00
2024-02-22T09:09:41.113Z,732.00
2024-02-22T09:10:41.143Z,727.00
2024-02-22T09:11:41.185Z,720.00
2024-02-22T09:12:41.579Z,715.00
2024-02-22T09:13:44.325Z,712.00
2024-02-22T09:14:41.486Z,707.00
2024-02-22T09:15:42.755Z,699.00
2024-02-22T09:16:41.266Z,694.00
2024-02-22T09:17:41.172Z,691.00
2024-02-22T09:18:41.217Z,687.00
2024-02-22T09:19:41.274Z,685.00
2024-02-22T09:20:41.155Z,683.00
2024-02-22T09:21:41.531Z,679.00
2024-02-22T09:22:41.159Z,673.00
2024-02-22T09:23:41.737Z,665.00
2024-02-22T09:24:41.205Z,661.00
2024-02-22T09:25:41.308Z,658.00
2024-02-22T09:26:41.312Z,655.00
2024-02-22T09:27:41.380Z,651.00
2024-02-22T09:28:41.495Z,646.00
2024-02-22T09:29:41.475Z,641.00
2024-02-22T09:30:41.536Z,637.00
2024-02-22T09:31:41.659Z,637.00
2024-02-22T09:32:41.687Z,635.00
2024-02-22T09:33:41.779Z,632.00
2024-02-22T09:34:41.830Z,629.00
2024-02-22T09:35:41.828Z,628.00
2024-02-22T09:36:42.063Z,628.00
2024-02-22T09:37:41.890Z,626.00
2024-02-22T09:38:41.927Z,623.00
2024-02-22T09:39:41.961Z,623.00
2024-02-22T09:40:42.062Z,624.00
2024-02-22T09:41:42.493Z,628.00
2024-02-22T09:42:42.066Z,636.00
2024-02-22T09:43:42.140Z,697.00
2024-02-22T09:44:42.271Z,735.00
2024-02-22T09:45:43.196Z,741.00
2024-02-22T09:46:42.600Z,761.00
2024-02-22T09:47:42.388Z,793.00
2024-02-22T09:48:42.537Z,812.00
2024-02-22T09:49:42.563Z,823.00
2024-02-22T09:50:42.669Z,840.00
2024-02-22T09:51:43.005Z,860.00
2024-02-22T09:52:43.071Z,918.00
2024-02-22T09:53:42.738Z,919.00
2024-02-22T09:54:42.762Z,918.00
2024-02-22T09:55:42.888Z,927.00
2024-02-22T09:56:42.998Z,934.00
2024-02-22T09:57:42.993Z,887.00
2024-02-22T09:58:42.993Z,883.00
2024-02-22T09:59:43.011Z,857.00
2024-02-22T10:00:58.752Z,827.00
2024-02-22T10:01:43.580Z,812.00
2024-02-22T10:02:43.077Z,808.00
2024-02-22T10:03:43.135Z,801.00
2024-02-22T10:04:43.203Z,792.00
2024-02-22T10:05:43.195Z,786.00
2024-02-22T10:06:43.552Z,740.00
2024-02-22T10:07:43.157Z,753.00
2024-02-22T10:08:45.881Z,740.00
2024-02-22T10:09:43.110Z,731.00
2024-02-22T10:10:43.198Z,821.00
2024-02-22T10:11:43.659Z,794.00
2024-02-22T10:12:43.617Z,761.00
2024-02-22T10:13:43.279Z,756.00
2024-02-22T10:14:43.195Z,784.00
2024-02-22T10:15:43.108Z,798.00
2024-02-22T10:16:43.603Z,805.00
2024-02-22T10:17:43.168Z,779.00
2024-02-22T10:18:43.216Z,777.00
2024-02-22T10:19:43.118Z,784.00
2024-02-22T10:20:45.097Z,788.00
2024-02-22T10:21:43.358Z,753.00
2024-02-22T10:22:43.563Z,731.00
2024-02-22T10:23:43.102Z,725.00
2024-02-22T10:24:43.111Z,729.00
2024-02-22T10:25:43.155Z,733.00
2024-02-22T10:26:43.126Z,744.00
2024-02-22T10:27:44.557Z,749.00
2024-02-22T10:28:43.154Z,753.00
2024-02-22T10:29:43.160Z,759.00
2024-02-22T10:30:43.516Z,732.00
2024-02-22T10:31:43.302Z,753.00
2024-02-22T10:32:43.945Z,757.00
2024-02-22T10:33:43.477Z,766.00
2024-02-22T10:34:43.484Z,755.00
2024-02-22T10:35:43.502Z,751.00
2024-02-22T10:36:43.544Z,749.00
2024-02-22T10:37:44.594Z,746.00
2024-02-22T10:38:43.600Z,735.00
2024-02-22T10:39:43.640Z,733.00
2024-02-22T10:40:43.724Z,738.00
2024-02-22T10:41:43.723Z,735.00
2024-02-22T10:42:44.012Z,736.00
2024-02-22T10:43:43.809Z,739.00
2024-02-22T10:44:43.853Z,745.00
2024-02-22T10:45:43.909Z,794.00
2024-02-22T10:46:44.068Z,782.00
2024-02-22T10:47:44.602Z,773.00
2024-02-22T10:48:44.228Z,781.00
2024-02-22T10:49:44.189Z,804.00
2024-02-22T10:50:44.254Z,802.00
2024-02-22T10:51:44.328Z,801.00
2024-02-22T10:52:44.454Z,801.00
2024-02-22T10:53:44.452Z,802.00
2024-02-22T10:54:44.580Z,789.00
2024-02-22T10:55:44.629Z,814.00
2024-02-22T10:56:44.663Z,798.00
2024-02-22T10:57:44.733Z,796.00
2024-02-22T10:58:45.965Z,778.00
2024-02-22T10:59:44.886Z,770.00
2024-02-22T11:00:44.984Z,797.00
2024-02-22T11:01:45.055Z,807.00
2024-02-22T11:02:45.519Z,801.00
2024-02-22T11:03:45.146Z,791.00
2024-02-22T11:04:45.185Z,769.00
2024-02-22T11:05:45.241Z,773.00
2024-02-22T11:06:45.317Z,784.00
2024-02-22T11:07:45.429Z,791.00
2024-02-22T11:08:45.498Z,801.00
2024-02-22T11:09:45.462Z,804.00
2024-02-22T11:10:45.544Z,785.00
2024-02-22T11:11:45.704Z,792.00
2024-02-22T11:12:45.611Z,781.00
2024-02-22T11:13:45.690Z,787.00
2024-02-22T11:14:45.714Z,784.00
2024-02-22T11:15:45.770Z,797.00
2024-02-22T11:16:45.849Z,812.00
2024-02-22T11:17:46.033Z,803.00
2024-02-22T11:18:45.958Z,790.00
2024-02-22T11:19:45.995Z,791.00
2024-02-22T11:20:46.018Z,790.00
2024-02-22T11:21:46.083Z,780.00
2024-02-22T11:22:46.591Z,776.00
2024-02-22T11:23:46.640Z,777.00
2024-02-22T11:24:46.277Z,774.00
2024-02-22T11:25:46.299Z,775.00
2024-02-22T11:26:46.319Z,764.00
2024-02-22T11:27:46.536Z,759.00
2024-02-22T11:28:46.554Z,763.00
2024-02-22T11:29:46.546Z,766.00
2024-02-22T11:30:46.557Z,771.00
2024-02-22T11:31:46.658Z,776.00
2024-02-22T11:32:47.051Z,783.00
2024-02-22T11:33:46.847Z,782.00
2024-02-22T11:34:46.788Z,784.00
2024-02-22T11:35:46.783Z,788.00
2024-02-22T11:36:46.830Z,784.00
2024-02-22T11:37:47.064Z,774.00
2024-02-22T11:38:47.006Z,770.00
2024-02-22T11:39:46.976Z,771.00
2024-02-22T11:40:47.077Z,770.00
2024-02-22T11:41:47.031Z,769.00
2024-02-22T11:42:47.069Z,770.00
2024-02-22T11:43:47.153Z,768.00
2024-02-22T11:44:47.667Z,770.00
2024-02-22T11:45:47.191Z,772.00
2024-02-22T11:46:47.247Z,775.00
2024-02-22T11:47:47.325Z,778.00
2024-02-22T11:48:47.348Z,779.00
2024-02-22T11:49:47.350Z,769.00
2024-02-22T11:50:47.365Z,768.00
2024-02-22T11:51:47.403Z,779.00
2024-02-22T11:52:47.559Z,796.00
2024-02-22T11:53:48.030Z,807.00
2024-02-22T11:54:47.500Z,819.00
2024-02-22T11:55:47.552Z,835.00
2024-02-22T11:56:47.581Z,840.00
2024-02-22T11:57:47.600Z,844.00
2024-02-22T11:58:47.639Z,837.00
2024-02-22T11:59:48.038Z,833.00
2024-02-22T12:00:47.732Z,827.00
2024-02-22T12:01:47.752Z,824.00
2024-02-22T12:02:47.780Z,833.00
2024-02-22T12:03:47.785Z,841.00
2024-02-22T12:04:47.836Z,846.00
2024-02-22T12:05:47.910Z,861.00
2024-02-22T12:06:47.957Z,878.00
2024-02-22T12:07:47.929Z,894.00
2024-02-22T12:08:47.923Z,896.00
2024-02-22T12:09:47.953Z,910.00
2024-02-22T12:10:48.197Z,916.00
2024-02-22T12:11:48.065Z,914.00
2024-02-22T12:12:48.059Z,906.00
2024-02-22T12:13:48.109Z,905.00
2024-02-22T12:14:48.550Z,904.00
2024-02-22T12:15:48.193Z,903.00
2024-02-22T12:16:48.193Z,902.00
2024-02-22T12:17:48.551Z,900.00
2024-02-22T12:18:48.256Z,909.00
2024-02-22T12:19:48.564Z,915.00
2024-02-22T12:20:48.274Z,924.00
2024-02-22T12:21:48.334Z,920.00
2024-02-22T12:22:48.315Z,919.00
2024-02-22T12:23:48.294Z,921.00
2024-02-22T12:24:48.306Z,931.00
2024-02-22T12:25:48.330Z,932.00
2024-02-22T12:26:48.306Z,938.00
2024-02-22T12:27:48.313Z,940.00
2024-02-22T12:28:48.372Z,944.00
2024-02-22T12:29:48.341Z,948.00
2024-02-22T12:30:48.345Z,937.00
2024-02-22T12:31:48.364Z,925.00
2024-02-22T12:32:48.681Z,918.00
2024-02-22T12:33:48.502Z,916.00
2024-02-22T12:34:48.522Z,918.00
2024-02-22T12:35:48.523Z,921.00
2024-02-22T12:36:48.561Z,924.00
2024-02-22T12:37:49.070Z,922.00
2024-02-22T12:38:48.603Z,920.00
2024-02-22T12:39:48.714Z,923.00
2024-02-22T12:40:48.823Z,923.00
2024-02-22T12:41:49.145Z,921.00
2024-02-22T12:42:48.836Z,923.00
2024-02-22T12:43:48.973Z,924.00
2024-02-22T12:44:49.967Z,924.00
2024-02-22T12:45:48.993Z,920.00
2024-02-22T12:46:49.071Z,919.00
2024-02-22T12:47:49.306Z,915.00
2024-02-22T12:48:49.260Z,910.00
2024-02-22T12:49:49.281Z,901.00
2024-02-22T12:50:49.286Z,901.00
2024-02-22T12:51:49.346Z,901.00
2024-02-22T12:52:49.395Z,898.00
2024-02-22T12:53:49.430Z,902.00
2024-02-22T12:54:49.476Z,907.00
2024-02-22T12:55:49.572Z,915.00
2024-02-22T12:56:49.559Z,920.00
2024-02-22T12:57:49.608Z,923.00
2024-02-22T12:58:49.752Z,921.00
2024-02-22T12:59:49.669Z,919.00
2024-02-22T13:00:49.783Z,918.00
2024-02-22T13:01:49.803Z,922.00
2024-02-22T13:02:49.846Z,927.00
2024-02-22T13:03:49.894Z,934.00
2024-02-22T13:04:50.008Z,936.00
2024-02-22T13:05:49.983Z,930.00
2024-02-22T13:06:50.083Z,925.00
2024-02-22T13:07:50.647Z,916.00
2024-02-22T13:08:50.137Z,916.00
2024-02-22T13:09:50.184Z,916.00
2024-02-22T13:10:50.297Z,915.00
2024-02-22T13:11:50.465Z,914.00
2024-02-22T13:12:50.586Z,912.00
2024-02-22T13:13:50.402Z,913.00
2024-02-22T13:14:50.397Z,913.00
2024-02-22T13:15:50.457Z,920.00
2024-02-22T13:16:50.490Z,918.00
2024-02-22T13:17:50.605Z,922.00
2024-02-22T13:18:50.656Z,929.00
2024-02-22T13:19:50.689Z,936.00
2024-02-22T13:20:50.615Z,934.00
2024-02-22T13:21:50.655Z,932.00
2024-02-22T13:22:51.281Z,932.00
2024-02-22T13:23:51.100Z,933.00
2024-02-22T13:24:50.816Z,940.00
2024-02-22T13:25:50.911Z,943.00
2024-02-22T13:26:50.934Z,946.00
2024-02-22T13:27:51.150Z,949.00
2024-02-22T13:28:51.118Z,947.00
2024-02-22T13:29:51.060Z,943.00
2024-02-22T13:30:51.118Z,940.00
2024-02-22T13:31:51.179Z,937.00
2024-02-22T13:32:52.298Z,935.00
2024-02-22T13:33:51.730Z,929.00
2024-02-22T13:34:51.436Z,923.00
2024-02-22T13:35:51.355Z,922.00
2024-02-22T13:36:51.396Z,922.00
2024-02-22T13:37:51.472Z,917.00
2024-02-22T13:38:51.600Z,917.00
2024-02-22T13:39:58.033Z,917.00
2024-02-22T13:40:51.560Z,922.00
2024-02-22T13:41:51.834Z,922.00
2024-02-22T13:42:51.518Z,920.00
2024-02-22T13:43:51.551Z,917.00
2024-02-22T13:44:51.618Z,913.00
2024-02-22T13:45:51.547Z,921.00
2024-02-22T13:46:51.583Z,925.00
2024-02-22T13:47:51.782Z,922.00
2024-02-22T13:48:51.959Z,921.00
2024-02-22T13:49:51.652Z,920.00
2024-02-22T13:50:51.544Z,920.00
2024-02-22T13:51:51.547Z,916.00
2024-02-22T13:52:51.597Z,919.00
2024-02-22T13:53:51.814Z,919.00
2024-02-22T13:54:51.808Z,926.00
2024-02-22T13:55:51.887Z,927.00
2024-02-22T13:56:52.830Z,927.00
2024-02-22T13:57:51.875Z,934.00
2024-02-22T13:58:51.850Z,934.00
2024-02-22T13:59:51.840Z,933.00
2024-02-22T14:00:51.927Z,925.00
2024-02-22T14:01:52.492Z,926.00
2024-02-22T14:02:52.024Z,921.00
2024-02-22T14:03:52.099Z,923.00
2024-02-22T14:04:52.246Z,919.00
2024-02-22T14:05:53.593Z,923.00
2024-02-22T14:06:52.346Z,923.00
2024-02-22T14:07:52.279Z,923.00
2024-02-22T14:08:52.377Z,927.00
2024-02-22T14:09:52.255Z,933.00
2024-02-22T14:10:52.268Z,946.00
2024-02-22T14:11:52.160Z,956.00
2024-02-22T14:12:52.104Z,958.00
2024-02-22T14:13:52.008Z,963.00
2024-02-22T14:14:51.989Z,963.00
2024-02-22T14:15:52.055Z,967.00
2024-02-22T14:16:52.029Z,972.00
2024-02-22T14:17:52.012Z,962.00
2024-02-22T14:18:52.018Z,910.00
2024-02-22T14:19:52.020Z,897.00
2024-02-22T14:20:52.032Z,902.00
2024-02-22T14:21:51.996Z,906.00
2024-02-22T14:22:52.073Z,902.00
2024-02-22T14:23:52.141Z,897.00
2024-02-22T14:24:52.178Z,900.00
2024-02-22T14:25:52.301Z,899.00
2024-02-22T14:26:52.314Z,896.00
2024-02-22T14:27:52.367Z,899.00
2024-02-22T14:28:52.483Z,897.00
2024-02-22T14:29:52.497Z,899.00
2024-02-22T14:30:52.543Z,901.00
2024-02-22T14:31:52.635Z,904.00
2024-02-22T14:32:53.130Z,906.00
2024-02-22T14:33:52.814Z,899.00
2024-02-22T14:34:53.451Z,896.00
2024-02-22T14:35:52.859Z,895.00
2024-02-22T14:36:52.954Z,901.00
2024-02-22T14:37:53.046Z,899.00
2024-02-22T14:38:53.052Z,897.00
2024-02-22T14:39:53.136Z,894.00
2024-02-22T14:40:53.212Z,895.00
2024-02-22T14:41:53.247Z,892.00
2024-02-22T14:42:53.345Z,891.00
2024-02-22T14:43:53.373Z,891.00
2024-02-22T14:44:53.420Z,891.00
2024-02-22T14:45:53.626Z,889.00
2024-02-22T14:46:53.566Z,887.00
2024-02-22T14:47:53.674Z,885.00
2024-02-22T14:48:53.694Z,882.00
2024-02-22T14:49:54.228Z,882.00
2024-02-22T14:50:54.097Z,875.00
2024-02-22T14:51:53.844Z,871.00
2024-02-22T14:52:53.993Z,874.00
2024-02-22T14:53:53.932Z,878.00
2024-02-22T14:54:53.978Z,880.00
2024-02-22T14:55:54.075Z,875.00
2024-02-22T14:56:54.125Z,878.00
2024-02-22T14:57:54.645Z,884.00
2024-02-22T14:58:54.311Z,880.00
2024-02-22T14:59:54.265Z,884.00
2024-02-22T15:00:54.382Z,889.00
2024-02-22T15:01:54.385Z,896.00
2024-02-22T15:02:54.626Z,904.00
2024-02-22T15:03:54.486Z,902.00
2024-02-22T15:04:54.601Z,897.00
2024-02-22T15:05:54.702Z,902.00
2024-02-22T15:06:54.741Z,906.00
2024-02-22T15:07:55.183Z,897.00
2024-02-22T15:08:54.871Z,1169.00
2024-02-22T15:09:54.893Z,960.00
2024-02-22T15:10:55.052Z,935.00
2024-02-22T15:11:55.142Z,956.00
2024-02-22T15:12:55.104Z,962.00
2024-02-22T15:13:55.209Z,939.00
2024-02-22T15:14:55.430Z,940.00
2024-02-22T15:15:55.318Z,941.00
2024-02-22T15:16:55.416Z,941.00
2024-02-22T15:17:55.493Z,942.00
2024-02-22T15:18:55.595Z,917.00
2024-02-22T15:19:55.616Z,909.00
2024-02-22T15:20:55.641Z,910.00
2024-02-22T15:21:55.710Z,905.00
2024-02-22T15:22:56.169Z,893.00
2024-02-22T15:23:55.889Z,892.00
2024-02-22T15:24:55.946Z,895.00
2024-02-22T15:25:56.062Z,897.00
2024-02-22T15:26:56.097Z,897.00
2024-02-22T15:27:56.129Z,902.00
2024-02-22T15:28:56.241Z,894.00
2024-02-22T15:29:56.285Z,897.00
2024-02-22T15:30:58.867Z,896.00
2024-02-22T15:31:56.363Z,876.00
2024-02-22T15:32:56.416Z,856.00
2024-02-22T15:34:04.581Z,828.00
2024-02-22T15:34:56.489Z,815.00
2024-02-22T15:35:56.427Z,808.00
2024-02-22T15:36:56.363Z,793.00
2024-02-22T15:37:56.394Z,775.00
2024-02-22T15:38:56.367Z,751.00
2024-02-22T15:39:56.375Z,669.00
2024-02-22T15:40:56.425Z,678.00
2024-02-22T15:41:56.367Z,679.00
2024-02-22T15:42:56.654Z,668.00
2024-02-22T15:43:56.412Z,667.00
2024-02-22T15:44:56.374Z,665.00
2024-02-22T15:45:56.376Z,659.00
2024-02-22T15:46:56.408Z,653.00
2024-02-22T15:47:56.444Z,647.00
2024-02-22T15:48:56.477Z,645.00
2024-02-22T15:49:56.405Z,646.00
2024-02-22T15:50:56.393Z,643.00
2024-02-22T15:51:56.380Z,635.00
2024-02-22T15:52:56.689Z,631.00
2024-02-22T15:53:56.389Z,627.00
2024-02-22T15:54:56.377Z,621.00
2024-02-22T15:55:56.417Z,615.00
2024-02-22T15:56:56.678Z,609.00
2024-02-22T15:57:56.394Z,604.00
2024-02-22T15:58:56.477Z,597.00
2024-02-22T15:59:56.387Z,592.00
2024-02-22T16:00:56.477Z,589.00
2024-02-22T16:01:56.431Z,584.00
2024-02-22T16:02:56.408Z,576.00
2024-02-22T16:03:56.429Z,575.00
2024-02-22T16:04:56.521Z,573.00
2024-02-22T16:05:56.456Z,571.00
2024-02-22T16:06:56.392Z,567.00
2024-02-22T16:07:56.426Z,563.00
2024-02-22T16:08:56.384Z,560.00
2024-02-22T16:09:56.387Z,559.00
2024-02-22T16:10:56.570Z,557.00
2024-02-22T16:11:56.525Z,557.00
2024-02-22T16:12:56.568Z,556.00
2024-02-22T16:13:56.697Z,555.00
2024-02-22T16:14:56.666Z,551.00
2024-02-22T16:15:56.766Z,550.00
2024-02-22T16:16:56.993Z,548.00
2024-02-22T16:17:57.224Z,546.00
2024-02-22T16:18:57.522Z,545.00
2024-02-22T16:19:56.998Z,544.00
2024-02-22T16:20:57.042Z,542.00
2024-02-22T16:21:57.114Z,543.00
2024-02-22T16:22:57.196Z,541.00
2024-02-22T16:23:57.340Z,541.00
2024-02-22T16:24:57.280Z,541.00
2024-02-22T16:25:57.564Z,542.00
2024-02-22T16:26:57.389Z,543.00
2024-02-22T16:27:57.446Z,543.00
2024-02-22T16:28:57.583Z,543.00
2024-02-22T16:29:57.572Z,545.00
2024-02-22T16:30:57.682Z,545.00
2024-02-22T16:31:57.750Z,547.00
2024-02-22T16:32:57.889Z,545.00
2024-02-22T16:33:57.867Z,543.00
2024-02-22T16:34:57.915Z,544.00
2024-02-22T16:35:57.921Z,545.00
2024-02-22T16:36:57.990Z,543.00
2024-02-22T16:37:58.079Z,540.00
2024-02-22T16:39:02.880Z,539.00
2024-02-22T16:39:58.102Z,540.00
2024-02-22T16:40:58.203Z,541.00
2024-02-22T16:41:58.100Z,539.00
2024-02-22T16:42:58.113Z,537.00
2024-02-22T16:43:58.167Z,538.00
2024-02-22T16:44:58.152Z,540.00
2024-02-22T16:45:58.128Z,540.00
2024-02-22T16:46:58.126Z,541.00
2024-02-22T16:47:58.163Z,542.00
2024-02-22T16:48:58.204Z,541.00
2024-02-22T16:49:58.159Z,540.00
2024-02-22T16:50:58.121Z,540.00
2024-02-22T16:51:58.122Z,540.00
2024-02-22T16:52:58.158Z,543.00
2024-02-22T16:53:58.128Z,543.00
2024-02-22T16:54:58.124Z,543.00
2024-02-22T16:55:58.143Z,542.00
2024-02-22T16:56:58.122Z,543.00
2024-02-22T16:57:58.140Z,542.00
2024-02-22T16:58:58.142Z,541.00
2024-02-22T16:59:58.134Z,542.00
2024-02-22T17:00:58.178Z,544.00
2024-02-22T17:01:58.220Z,546.00
2024-02-22T17:02:58.162Z,545.00
2024-02-22T17:03:58.257Z,543.00
2024-02-22T17:04:58.367Z,541.00
2024-02-22T17:05:58.559Z,537.00
2024-02-22T17:06:58.476Z,537.00
2024-02-22T17:07:58.514Z,536.00
2024-02-22T17:08:58.536Z,538.00
2024-02-22T17:09:58.591Z,539.00
2024-02-22T17:10:58.726Z,537.00
2024-02-22T17:11:58.769Z,536.00
2024-02-22T17:12:58.745Z,536.00
2024-02-22T17:13:58.893Z,537.00
2024-02-22T17:14:58.862Z,537.00
2024-02-22T17:15:58.873Z,537.00
2024-02-22T17:16:58.978Z,535.00
2024-02-22T17:17:59.007Z,533.00
2024-02-22T17:18:59.055Z,534.00
2024-02-22T17:19:59.113Z,533.00
2024-02-22T17:20:59.117Z,533.00
2024-02-22T17:21:59.168Z,532.00
2024-02-22T17:22:59.261Z,533.00
2024-02-22T17:23:59.232Z,535.00
2024-02-22T17:24:59.302Z,536.00
2024-02-22T17:25:59.345Z,535.00
2024-02-22T17:26:59.368Z,536.00
2024-02-22T17:27:59.388Z,536.00
2024-02-22T17:28:59.468Z,538.00
2024-02-22T17:29:59.466Z,537.00
2024-02-22T17:30:59.509Z,538.00
2024-02-22T17:31:59.560Z,538.00
2024-02-22T17:32:59.656Z,539.00
2024-02-22T17:33:59.662Z,540.00
2024-02-22T17:34:59.677Z,542.00
2024-02-22T17:35:59.700Z,541.00
2024-02-22T17:36:59.762Z,540.00
2024-02-22T17:37:59.823Z,539.00
2024-02-22T17:38:59.837Z,538.00
2024-02-22T17:39:59.853Z,539.00
2024-02-22T17:40:59.947Z,539.00
2024-02-22T17:41:59.941Z,537.00
2024-02-22T17:42:59.971Z,539.00
2024-02-22T17:44:00.069Z,539.00
2024-02-22T17:45:00.017Z,540.00
2024-02-22T17:46:00.082Z,541.00
2024-02-22T17:47:00.140Z,542.00
2024-02-22T17:48:00.200Z,543.00
2024-02-22T17:49:00.251Z,541.00
2024-02-22T17:50:00.307Z,537.00
2024-02-22T17:51:00.295Z,534.00
2024-02-22T17:52:00.369Z,532.00
2024-02-22T17:53:00.499Z,532.00
2024-02-22T17:54:00.427Z,533.00
2024-02-22T17:55:00.499Z,531.00
2024-02-22T17:56:00.664Z,533.00
2024-02-22T17:57:02.272Z,532.00
2024-02-22T17:58:00.589Z,532.00
2024-02-22T17:59:00.613Z,532.00
2024-02-22T18:00:00.587Z,533.00
2024-02-22T18:01:00.676Z,531.00
2024-02-22T18:02:00.641Z,533.00
2024-02-22T18:03:03.983Z,535.00
2024-02-22T18:04:00.629Z,534.00
2024-02-22T18:05:00.847Z,533.00
2024-02-22T18:06:00.696Z,533.00
2024-02-22T18:07:00.702Z,536.00
2024-02-22T18:08:00.730Z,538.00
2024-02-22T18:09:00.708Z,538.00
2024-02-22T18:10:00.720Z,540.00
2024-02-22T18:11:00.823Z,539.00
2024-02-22T18:12:00.838Z,537.00
2024-02-22T18:13:00.757Z,536.00
2024-02-22T18:14:03.979Z,535.00
2024-02-22T18:15:00.754Z,532.00
2024-02-22T18:16:00.797Z,532.00
2024-02-22T18:17:00.826Z,530.00
2024-02-22T18:18:00.806Z,527.00
2024-02-22T18:19:00.863Z,527.00
2024-02-22T18:20:02.216Z,527.00
2024-02-22T18:21:00.788Z,523.00
2024-02-22T18:22:00.782Z,522.00
2024-02-22T18:23:00.841Z,522.00
2024-02-22T18:24:00.769Z,526.00
2024-02-22T18:25:00.799Z,526.00
2024-02-22T18:26:00.850Z,527.00
2024-02-22T18:27:00.795Z,527.00
2024-02-22T18:28:00.802Z,528.00
2024-02-22T18:29:00.802Z,530.00
2024-02-22T18:30:00.786Z,528.00
2024-02-22T18:31:00.775Z,530.00
2024-02-22T18:32:00.821Z,531.00
2024-02-22T18:33:00.834Z,533.00
2024-02-22T18:34:00.854Z,534.00
2024-02-22T18:35:01.010Z,533.00
2024-02-22T18:36:00.780Z,531.00
2024-02-22T18:37:00.817Z,530.00
2024-02-22T18:38:00.840Z,529.00
2024-02-22T18:39:00.819Z,527.00
2024-02-22T18:40:00.785Z,526.00
2024-02-22T18:41:00.842Z,526.00
2024-02-22T18:42:00.796Z,526.00
2024-02-22T18:43:00.791Z,528.00
2024-02-22T18:44:00.820Z,528.00
2024-02-22T18:45:03.051Z,528.00
2024-02-22T18:46:00.790Z,525.00
2024-02-22T18:47:00.817Z,527.00
2024-02-22T18:48:00.841Z,527.00
2024-02-22T18:49:00.854Z,528.00
2024-02-22T18:50:00.951Z,527.00
2024-02-22T18:51:00.804Z,527.00
2024-02-22T18:52:00.797Z,528.00
2024-02-22T18:53:00.864Z,527.00
2024-02-22T18:54:00.802Z,527.00
2024-02-22T18:55:00.802Z,524.00
2024-02-22T18:56:00.884Z,521.00
2024-02-22T18:57:00.826Z,520.00
2024-02-22T18:58:00.806Z,523.00
2024-02-22T18:59:00.864Z,522.00
2024-02-22T19:00:00.818Z,524.00
2024-02-22T19:01:00.916Z,525.00
2024-02-22T19:02:00.852Z,528.00
2024-02-22T19:03:00.832Z,527.00
2024-02-22T19:04:00.890Z,529.00
2024-02-22T19:05:00.888Z,527.00
2024-02-22T19:06:00.852Z,526.00
2024-02-22T19:07:00.836Z,525.00
2024-02-22T19:08:00.853Z,525.00
2024-02-22T19:09:01.239Z,527.00
2024-02-22T19:10:00.862Z,528.00
2024-02-22T19:11:00.884Z,528.00
2024-02-22T19:12:01.705Z,528.00
2024-02-22T19:13:00.855Z,527.00
2024-02-22T19:14:00.881Z,526.00
2024-02-22T19:15:00.874Z,525.00
2024-02-22T19:16:00.866Z,526.00
2024-02-22T19:17:00.887Z,525.00
2024-02-22T19:18:00.948Z,524.00
2024-02-22T19:19:00.908Z,524.00
2024-02-22T19:20:01.159Z,523.00
2024-02-22T19:21:00.989Z,522.00
2024-02-22T19:22:00.868Z,522.00
2024-02-22T19:23:00.886Z,520.00
2024-02-22T19:24:00.878Z,520.00
2024-02-22T19:25:00.924Z,521.00
2024-02-22T19:26:00.912Z,520.00
2024-02-22T19:27:02.875Z,519.00
2024-02-22T19:28:00.887Z,517.00
2024-02-22T19:29:00.908Z,520.00
2024-02-22T19:30:01.068Z,521.00
2024-02-22T19:31:00.893Z,522.00
2024-02-22T19:32:00.922Z,521.00
2024-02-22T19:33:00.909Z,519.00
2024-02-22T19:34:00.948Z,517.00
2024-02-22T19:35:01.043Z,518.00
2024-02-22T19:36:00.905Z,518.00
2024-02-22T19:37:00.908Z,520.00
2024-02-22T19:38:00.939Z,520.00
2024-02-22T19:39:00.946Z,519.00
2024-02-22T19:40:00.915Z,519.00
2024-02-22T19:41:01.763Z,519.00
2024-02-22T19:42:00.920Z,517.00
2024-02-22T19:43:00.924Z,516.00
2024-02-22T19:44:00.948Z,517.00
2024-02-22T19:45:00.922Z,519.00
2024-02-22T19:46:00.928Z,520.00
2024-02-22T19:47:01.010Z,522.00
2024-02-22T19:48:00.954Z,522.00
2024-02-22T19:49:01.014Z,521.00
2024-02-22T19:50:00.996Z,521.00
2024-02-22T19:51:00.925Z,518.00
2024-02-22T19:52:00.931Z,516.00
2024-02-22T19:53:00.978Z,519.00